createdAt,value
2019-03-01T00:02:08.725Z,2.02
2019-03-01T00:04:44.773Z,1.82
2019-03-01T00:07:51.855Z,1.90
2019-03-01T00:10:41.939Z,2.10
2019-03-01T00:13:18.382Z,2.00
2019-03-01T00:16:12.930Z,2.05
2019-03-01T00:19:04.504Z,2.00
2019-03-01T00:21:44.248Z,2.20
2019-03-01T00:24:23.468Z,2.47
2019-03-01T00:27:05.815Z,2.27
2019-03-01T00:29:44.370Z,2.47
2019-03-01T00:32:23.280Z,2.85
2019-03-01T00:35:29.775Z,2.40
2019-03-01T00:38:25.514Z,2.92
2019-03-01T00:41:10.703Z,2.85
2019-03-01T00:44:01.494Z,2.70
2019-03-01T00:46:31.792Z,2.58
2019-03-01T00:49:01.936Z,2.95
2019-03-01T00:51:32.547Z,3.02
2019-03-01T00:54:02.706Z,3.80
2019-03-01T00:56:33.690Z,3.25
2019-03-01T00:59:04.131Z,2.87
2019-03-01T01:01:34.307Z,3.05
2019-03-01T01:04:04.534Z,3.20
2019-03-01T01:06:34.909Z,3.20
2019-03-01T01:09:07.010Z,3.67
2019-03-01T01:11:37.289Z,3.77
2019-03-01T01:14:07.540Z,3.90
2019-03-01T01:16:37.933Z,3.47
2019-03-01T01:19:08.092Z,4.00
2019-03-01T01:21:38.364Z,3.75
2019-03-01T01:24:08.620Z,3.90
2019-03-01T01:26:38.937Z,4.10
2019-03-01T01:29:09.124Z,4.00
2019-03-01T01:31:39.251Z,4.42
2019-03-01T01:34:09.463Z,4.30
2019-03-01T01:36:39.743Z,4.10
2019-03-01T01:39:10.714Z,3.92
2019-03-01T01:41:40.897Z,4.08
2019-03-01T01:44:11.158Z,3.67
2019-03-01T01:46:41.433Z,3.70
2019-03-01T01:49:11.652Z,3.70
2019-03-01T01:51:42.022Z,3.98
2019-03-01T01:54:12.188Z,3.83
2019-03-01T01:56:42.489Z,3.37
2019-03-01T01:59:12.961Z,3.87
2019-03-01T02:01:43.408Z,4.55
2019-03-01T02:04:13.741Z,3.50
2019-03-01T02:06:44.021Z,3.17
2019-03-01T02:09:20.904Z,3.75
2019-03-01T02:11:51.238Z,4.15
2019-03-01T02:14:21.487Z,3.47
2019-03-01T02:16:51.692Z,3.30
2019-03-01T02:19:21.852Z,3.90
2019-03-01T02:21:52.231Z,3.95
2019-03-01T02:24:23.393Z,3.62
2019-03-01T02:27:13.343Z,4.05
2019-03-01T02:29:43.480Z,3.92
2019-03-01T02:32:13.659Z,4.03
2019-03-01T02:34:43.808Z,4.00
2019-03-01T02:37:14.006Z,4.30
2019-03-01T02:39:44.169Z,4.05
2019-03-01T02:42:14.448Z,4.37
2019-03-01T02:44:44.616Z,4.20
2019-03-01T02:47:14.879Z,4.50
2019-03-01T02:49:45.166Z,3.60
2019-03-01T02:52:15.324Z,3.98
2019-03-01T02:54:45.495Z,3.90
2019-03-01T02:57:15.770Z,3.47
2019-03-01T02:59:46.005Z,4.12
2019-03-01T03:02:16.263Z,3.37
2019-03-01T03:04:46.433Z,3.90
2019-03-01T03:07:18.265Z,3.60
2019-03-01T03:09:48.433Z,3.47
2019-03-01T03:12:18.688Z,3.80
2019-03-01T03:14:48.876Z,2.83
2019-03-01T03:17:19.136Z,3.37
2019-03-01T03:19:49.830Z,2.95
2019-03-01T03:22:20.096Z,3.15
2019-03-01T03:24:50.494Z,3.20
2019-03-01T03:27:20.757Z,2.80
2019-03-01T03:29:50.974Z,3.10
2019-03-01T03:32:21.109Z,3.17
2019-03-01T03:34:51.906Z,3.95
2019-03-01T03:37:22.065Z,3.40
2019-03-01T03:39:52.357Z,3.60
2019-03-01T03:42:22.519Z,3.40
2019-03-01T03:44:52.864Z,3.70
2019-03-01T03:47:23.142Z,3.90
2019-03-01T03:49:53.427Z,3.80
2019-03-01T03:52:23.685Z,3.72
2019-03-01T03:54:54.047Z,3.77
2019-03-01T03:57:24.406Z,3.30
2019-03-01T03:59:54.800Z,3.87
2019-03-01T04:02:25.065Z,3.20
2019-03-01T04:04:55.390Z,3.40
2019-03-01T04:07:25.853Z,3.27
2019-03-01T04:09:56.024Z,3.40
2019-03-01T04:12:26.598Z,2.75
2019-03-01T04:14:56.885Z,3.90
2019-03-01T04:17:27.263Z,3.40
2019-03-01T04:19:57.541Z,3.10
2019-03-01T04:22:27.878Z,3.62
2019-03-01T04:24:58.762Z,3.10
2019-03-01T04:27:28.925Z,3.42
2019-03-01T04:29:59.208Z,3.20
2019-03-01T04:32:29.663Z,3.22
2019-03-01T04:34:59.954Z,2.90
2019-03-01T04:37:30.116Z,3.35
2019-03-01T04:40:00.306Z,2.90
2019-03-01T04:42:30.466Z,2.50
2019-03-01T04:45:00.754Z,2.10
2019-03-01T04:47:31.016Z,1.80
2019-03-01T04:50:01.302Z,1.40
2019-03-01T04:52:33.476Z,2.12
2019-03-01T04:55:07.477Z,2.30
2019-03-01T04:57:37.745Z,2.50
2019-03-01T05:00:13.370Z,2.55
2019-03-01T05:02:43.526Z,2.40
2019-03-01T05:05:14.348Z,4.62
2019-03-01T05:07:46.313Z,2.90
2019-03-01T05:10:16.571Z,2.50
2019-03-01T05:12:46.831Z,2.70
2019-03-01T05:15:22.257Z,2.37
2019-03-01T05:17:52.526Z,2.30
2019-03-01T05:20:22.921Z,2.22
2019-03-01T05:22:53.264Z,2.20
2019-03-01T05:25:23.445Z,2.37
2019-03-01T05:27:56.053Z,2.25
2019-03-01T05:30:26.560Z,2.00
2019-03-01T05:32:56.832Z,2.12
2019-03-01T05:35:27.020Z,2.00
2019-03-01T05:37:57.189Z,2.10
2019-03-01T05:40:27.571Z,2.40
2019-03-01T05:42:57.745Z,1.90
2019-03-01T05:45:30.287Z,2.40
2019-03-01T05:48:02.417Z,2.10
2019-03-01T05:50:32.716Z,1.90
2019-03-01T05:53:02.880Z,2.12
2019-03-01T05:55:34.567Z,2.80
2019-03-01T05:58:28.616Z,2.08
2019-03-01T06:01:11.071Z,2.47
2019-03-01T06:03:56.165Z,2.40
2019-03-01T06:06:41.671Z,2.58
2019-03-01T06:09:31.348Z,2.52
2019-03-01T06:12:16.708Z,2.50
2019-03-01T06:15:04.788Z,2.62
2019-03-01T06:17:38.108Z,3.00
2019-03-01T06:20:11.340Z,2.80
2019-03-01T06:22:50.453Z,3.52
2019-03-01T06:25:23.692Z,3.50
2019-03-01T06:27:59.855Z,3.58
2019-03-01T06:30:52.264Z,5.45
2019-03-01T06:33:48.571Z,4.22
2019-03-01T06:36:30.998Z,4.60
2019-03-01T06:39:31.414Z,4.20
2019-03-01T06:42:19.398Z,4.70
2019-03-01T06:44:55.768Z,4.15
2019-03-01T06:47:47.549Z,3.62
2019-03-01T06:50:19.746Z,3.85
2019-03-01T06:52:50.801Z,3.95
2019-03-01T06:55:29.876Z,4.95
2019-03-01T06:58:00.557Z,6.10
2019-03-01T07:00:32.567Z,2.65
2019-03-01T07:03:04.272Z,1.67
2019-03-01T07:05:34.948Z,1.40
2019-03-01T07:08:05.251Z,1.20
2019-03-01T07:10:35.617Z,1.75
2019-03-01T07:13:05.801Z,1.20
2019-03-01T07:15:36.763Z,1.50
2019-03-01T07:18:08.795Z,0.95
2019-03-01T07:20:39.340Z,1.98
2019-03-01T07:23:09.661Z,1.80
2019-03-01T07:25:39.925Z,1.02
2019-03-01T07:28:10.209Z,1.17
2019-03-01T07:30:40.376Z,1.80
2019-03-01T07:33:10.748Z,0.93
2019-03-01T07:35:41.016Z,1.05
2019-03-01T07:38:11.305Z,1.20
2019-03-01T07:40:41.564Z,1.25
2019-03-01T07:43:11.944Z,1.30
2019-03-01T07:45:42.314Z,1.70
2019-03-01T07:48:12.711Z,1.90
2019-03-01T07:50:43.172Z,1.98
2019-03-01T07:53:13.447Z,2.58
2019-03-01T07:55:44.149Z,1.90
2019-03-01T07:58:15.210Z,3.00
2019-03-01T08:00:46.751Z,2.10
2019-03-01T08:03:17.401Z,1.67
2019-03-01T08:05:47.769Z,1.92
2019-03-01T08:08:18.046Z,2.00
2019-03-01T08:10:48.416Z,2.02
2019-03-01T08:13:18.712Z,2.60
2019-03-01T08:15:48.875Z,2.33
2019-03-01T08:18:19.365Z,3.33
2019-03-01T08:20:49.537Z,3.27
2019-03-01T08:23:19.716Z,2.90
2019-03-01T08:25:49.972Z,1.80
2019-03-01T08:28:22.064Z,2.27
2019-03-01T08:30:52.669Z,2.00
2019-03-01T08:33:22.852Z,1.72
2019-03-01T08:35:53.008Z,1.20
2019-03-01T08:38:25.532Z,1.52
2019-03-01T08:40:56.691Z,1.42
2019-03-01T08:43:26.871Z,1.20
2019-03-01T08:45:57.032Z,1.57
2019-03-01T08:48:27.212Z,1.50
2019-03-01T08:50:57.753Z,1.75
2019-03-01T08:53:28.379Z,1.52
2019-03-01T08:55:58.796Z,1.60
2019-03-01T08:58:28.974Z,1.20
2019-03-01T09:01:04.122Z,1.27
2019-03-01T09:04:01.327Z,2.17
2019-03-01T09:06:32.026Z,1.50
2019-03-01T09:09:02.324Z,1.27
2019-03-01T09:11:32.705Z,1.30
2019-03-01T09:14:03.032Z,1.27
2019-03-01T09:16:33.196Z,1.20
2019-03-01T09:19:03.389Z,1.80
2019-03-01T09:21:33.548Z,1.80
2019-03-01T09:24:03.840Z,1.62
2019-03-01T09:26:35.554Z,1.82
2019-03-01T09:29:06.165Z,1.67
2019-03-01T09:31:36.711Z,1.50
2019-03-01T09:34:07.028Z,2.00
2019-03-01T09:36:38.973Z,1.60
2019-03-01T09:39:10.181Z,1.70
2019-03-01T09:41:41.521Z,1.40
2019-03-01T09:44:12.116Z,1.50
2019-03-01T09:46:44.937Z,1.45
2019-03-01T09:49:15.714Z,1.30
2019-03-01T09:51:49.093Z,1.47
2019-03-01T09:54:18.002Z,1.10
2019-03-01T09:56:48.144Z,1.15
2019-03-01T09:59:18.335Z,1.15
2019-03-01T10:01:48.589Z,0.70
2019-03-01T10:04:18.975Z,1.00
2019-03-01T10:06:49.223Z,2.95
2019-03-01T10:09:20.616Z,1.30
2019-03-01T10:11:50.778Z,1.12
2019-03-01T10:14:20.975Z,1.30
2019-03-01T10:16:53.185Z,1.87
2019-03-01T10:19:23.365Z,1.27
2019-03-01T10:21:53.791Z,1.10
2019-03-01T10:24:23.955Z,0.90
2019-03-01T10:26:54.310Z,0.85
2019-03-01T10:29:24.586Z,0.60
2019-03-01T10:31:54.781Z,1.67
2019-03-01T10:34:25.084Z,1.12
2019-03-01T10:36:55.244Z,1.10
2019-03-01T10:39:25.495Z,1.10
2019-03-01T10:41:56.098Z,1.00
2019-03-01T10:44:26.764Z,1.10
2019-03-01T10:46:57.153Z,1.12
2019-03-01T10:49:27.395Z,0.85
2019-03-01T10:51:57.573Z,0.80
2019-03-01T10:54:27.821Z,0.70
2019-03-01T10:56:58.005Z,1.00
2019-03-01T10:59:28.981Z,0.80
2019-03-01T11:01:59.159Z,0.95
2019-03-01T11:04:29.299Z,0.90
2019-03-01T11:06:59.750Z,1.20
2019-03-01T11:09:30.002Z,0.95
2019-03-01T11:12:00.289Z,1.30
2019-03-01T11:14:30.557Z,1.00
2019-03-01T11:17:00.936Z,1.00
2019-03-01T11:19:31.194Z,0.93
2019-03-01T11:22:01.681Z,1.10
2019-03-01T11:24:31.944Z,0.95
2019-03-01T11:27:02.131Z,1.17
2019-03-01T11:29:32.393Z,1.02
2019-03-01T11:32:02.579Z,1.10
2019-03-01T11:34:33.027Z,1.07
2019-03-01T11:37:03.592Z,1.07
2019-03-01T11:39:33.944Z,0.98
2019-03-01T11:42:04.402Z,1.15
2019-03-01T11:44:34.661Z,1.10
2019-03-01T11:47:04.906Z,1.40
2019-03-01T11:49:35.174Z,1.20
2019-03-01T11:52:05.357Z,1.35
2019-03-01T11:54:35.706Z,5.17
2019-03-01T11:57:06.273Z,2.50
2019-03-01T11:59:36.641Z,2.10
2019-03-01T12:02:06.967Z,1.98
2019-03-01T12:04:37.090Z,1.92
2019-03-01T12:07:07.566Z,1.60
2019-03-01T12:09:37.832Z,1.90
2019-03-01T12:12:09.120Z,2.05
2019-03-01T12:14:39.990Z,4.25
2019-03-01T12:17:10.272Z,2.62
2019-03-01T12:19:40.486Z,4.90
2019-03-01T12:22:17.131Z,3.80
2019-03-01T12:24:42.658Z,2.70
2019-03-01T12:27:12.834Z,3.40
2019-03-01T12:29:43.005Z,3.00
2019-03-01T12:32:13.393Z,3.90
2019-03-01T12:34:43.579Z,10.98
2019-03-01T12:37:13.837Z,3.00
2019-03-01T12:39:44.216Z,10.88
2019-03-01T12:42:14.411Z,11.00
2019-03-01T12:44:44.688Z,6.53
2019-03-01T12:47:15.082Z,4.45
2019-03-01T12:49:45.755Z,4.35
2019-03-01T12:52:15.922Z,7.90
2019-03-01T12:54:46.120Z,13.05
2019-03-01T12:57:16.324Z,18.32
2019-03-01T12:59:46.592Z,8.43
2019-03-01T13:02:17.181Z,4.03
2019-03-01T13:04:49.855Z,13.28
2019-03-01T13:07:19.710Z,6.67
2019-03-01T13:09:50.309Z,3.87
2019-03-01T13:12:22.424Z,4.90
2019-03-01T13:14:52.701Z,17.32
2019-03-01T13:17:23.062Z,20.80
2019-03-01T13:19:57.642Z,6.00
2019-03-01T13:22:27.941Z,6.22
2019-03-01T13:24:58.545Z,4.30
2019-03-01T13:27:30.225Z,7.85
2019-03-01T13:30:00.401Z,5.72
2019-03-01T13:32:30.682Z,7.08
2019-03-01T13:35:00.831Z,4.47
2019-03-01T13:37:31.100Z,4.80
2019-03-01T13:40:01.163Z,5.10
2019-03-01T13:42:31.348Z,6.25
2019-03-01T13:45:03.297Z,7.42
2019-03-01T13:47:33.474Z,8.18
2019-03-01T13:50:07.270Z,4.95
2019-03-01T13:52:37.532Z,7.78
2019-03-01T13:55:09.300Z,12.00
2019-03-01T13:57:39.499Z,10.82
2019-03-01T14:00:15.396Z,7.58
2019-03-01T14:02:47.954Z,10.20
2019-03-01T14:05:18.546Z,10.00
2019-03-01T14:07:55.409Z,7.80
2019-03-01T14:10:23.964Z,6.37
2019-03-01T14:12:54.241Z,6.47
2019-03-01T14:15:24.670Z,5.72
2019-03-01T14:18:00.370Z,7.90
2019-03-01T14:20:27.724Z,6.40
2019-03-01T14:22:58.004Z,6.90
2019-03-01T14:25:28.147Z,7.42
2019-03-01T14:27:58.533Z,6.75
2019-03-01T14:30:30.325Z,6.05
2019-03-01T14:33:00.581Z,6.15
2019-03-01T14:35:30.741Z,6.42
2019-03-01T14:38:00.921Z,6.62
2019-03-01T14:40:31.172Z,7.17
2019-03-01T14:43:01.352Z,6.80
2019-03-01T14:45:32.940Z,7.25
2019-03-01T14:48:04.978Z,6.95
2019-03-01T14:50:34.917Z,6.42
2019-03-01T14:53:05.090Z,6.45
2019-03-01T14:55:40.823Z,6.35
2019-03-01T14:58:22.296Z,5.92
2019-03-01T15:00:58.921Z,7.30
2019-03-01T15:03:33.968Z,7.08
2019-03-01T15:06:05.062Z,6.80
2019-03-01T15:08:35.988Z,7.37
2019-03-01T15:11:11.622Z,6.33
2019-03-01T15:13:42.445Z,6.47
2019-03-01T15:16:12.740Z,7.20
2019-03-01T15:18:43.761Z,8.28
2019-03-01T15:21:14.770Z,7.37
2019-03-01T15:23:45.913Z,7.60
2019-03-01T15:26:16.274Z,7.78
2019-03-01T15:28:53.876Z,8.93
2019-03-01T15:31:21.002Z,7.15
2019-03-01T15:33:51.175Z,8.98
2019-03-01T15:36:22.192Z,7.90
2019-03-01T15:38:52.545Z,7.60
2019-03-01T15:41:22.824Z,8.20
2019-03-01T15:43:53.369Z,8.83
2019-03-01T15:46:23.515Z,6.35
2019-03-01T15:48:53.801Z,7.40
2019-03-01T15:51:24.166Z,7.45
2019-03-01T15:53:57.577Z,9.88
2019-03-01T15:56:26.851Z,8.90
2019-03-01T15:58:57.209Z,9.38
2019-03-01T16:01:27.604Z,9.25
2019-03-01T16:03:58.163Z,9.85
2019-03-01T16:06:28.451Z,8.83
2019-03-01T16:08:58.590Z,8.90
2019-03-01T16:11:30.973Z,9.85
2019-03-01T16:14:00.784Z,14.93
2019-03-01T16:16:30.993Z,10.13
2019-03-01T16:19:01.146Z,8.53
2019-03-01T16:21:31.433Z,8.45
2019-03-01T16:24:01.820Z,15.32
2019-03-01T16:26:33.524Z,9.78
2019-03-01T16:29:07.210Z,14.35
2019-03-01T16:31:36.330Z,15.20
2019-03-01T16:34:06.530Z,12.28
2019-03-01T16:36:37.598Z,10.32
2019-03-01T16:39:11.390Z,12.93
2019-03-01T16:41:42.877Z,10.63
2019-03-01T16:44:13.599Z,11.50
2019-03-01T16:46:43.808Z,14.28
2019-03-01T16:49:14.048Z,9.55
2019-03-01T16:51:44.253Z,12.80
2019-03-01T16:54:16.372Z,9.23
2019-03-01T16:56:47.201Z,9.35
2019-03-01T16:59:17.381Z,9.93
2019-03-01T17:01:47.601Z,10.95
2019-03-01T17:04:17.879Z,10.60
2019-03-01T17:06:49.362Z,11.05
2019-03-01T17:09:20.228Z,12.45
2019-03-01T17:11:50.437Z,10.75
2019-03-01T17:14:20.722Z,12.55
2019-03-01T17:16:50.928Z,11.12
2019-03-01T17:19:23.955Z,13.25
2019-03-01T17:21:53.540Z,19.35
2019-03-01T17:24:24.619Z,15.72
2019-03-01T17:26:54.838Z,22.85
2019-03-01T17:29:25.023Z,11.63
2019-03-01T17:31:55.208Z,8.35
2019-03-01T17:34:27.189Z,8.70
2019-03-01T17:36:57.159Z,8.80
2019-03-01T17:39:27.423Z,9.05
2019-03-01T17:41:57.721Z,9.68
2019-03-01T17:44:28.116Z,11.88
2019-03-01T17:46:58.328Z,13.65
2019-03-01T17:49:29.668Z,9.58
2019-03-01T17:52:00.368Z,8.13
2019-03-01T17:54:30.698Z,7.67
2019-03-01T17:57:02.438Z,8.35
2019-03-01T17:59:33.747Z,9.58
2019-03-01T18:02:04.423Z,11.88
2019-03-01T18:04:36.885Z,8.13
2019-03-01T18:07:06.603Z,7.30
2019-03-01T18:09:36.761Z,7.62
2019-03-01T18:12:07.017Z,7.97
2019-03-01T18:14:37.608Z,10.25
2019-03-01T18:17:08.043Z,10.23
2019-03-01T18:19:38.308Z,9.10
2019-03-01T18:22:08.504Z,9.70
2019-03-01T18:24:38.837Z,11.20
2019-03-01T18:27:12.173Z,11.50
2019-03-01T18:29:42.348Z,10.95
2019-03-01T18:32:12.832Z,12.60
2019-03-01T18:34:43.044Z,17.40
2019-03-01T18:37:19.571Z,17.80
2019-03-01T18:39:45.942Z,19.67
2019-03-01T18:42:16.161Z,22.95
2019-03-01T18:44:47.105Z,18.70
2019-03-01T18:47:17.414Z,17.35
2019-03-01T18:49:47.589Z,16.73
2019-03-01T18:52:18.418Z,16.50
2019-03-01T18:54:48.813Z,17.17
2019-03-01T18:57:19.107Z,15.83
2019-03-01T18:59:49.304Z,16.65
2019-03-01T19:02:19.516Z,18.00
2019-03-01T19:04:49.785Z,20.50
2019-03-01T19:07:19.970Z,21.77
2019-03-01T19:09:52.302Z,19.45
2019-03-01T19:12:22.239Z,20.00
2019-03-01T19:14:52.536Z,21.70
2019-03-01T19:17:22.817Z,18.55
2019-03-01T19:19:53.052Z,19.82
2019-03-01T19:22:24.762Z,21.77
2019-03-01T19:24:55.167Z,22.70
2019-03-01T19:27:25.357Z,22.35
2019-03-01T19:29:56.257Z,24.25
2019-03-01T19:32:26.854Z,25.17
2019-03-01T19:34:59.015Z,26.68
2019-03-01T19:37:29.475Z,27.05
2019-03-01T19:39:59.963Z,27.70
2019-03-01T19:42:33.207Z,28.90
2019-03-01T19:45:04.755Z,27.85
2019-03-01T19:47:36.117Z,28.27
2019-03-01T19:50:09.436Z,25.25
2019-03-01T19:52:39.679Z,27.25
2019-03-01T19:55:11.753Z,27.77
2019-03-01T19:57:42.964Z,26.48
2019-03-01T20:00:18.695Z,27.22
2019-03-01T20:02:48.965Z,27.85
2019-03-01T20:05:21.916Z,29.48
2019-03-01T20:07:55.627Z,29.20
2019-03-01T20:10:26.501Z,29.80
2019-03-01T20:12:56.760Z,28.90
2019-03-01T20:15:28.478Z,32.80
2019-03-01T20:17:58.667Z,31.27
2019-03-01T20:20:33.153Z,32.17
2019-03-01T20:23:01.520Z,32.42
2019-03-01T20:25:31.721Z,30.55
2019-03-01T20:28:01.929Z,30.60
2019-03-01T20:30:33.700Z,32.95
2019-03-01T20:33:04.214Z,31.68
2019-03-01T20:35:34.439Z,31.87
2019-03-01T20:38:06.623Z,32.70
2019-03-01T20:40:38.073Z,31.85
2019-03-01T20:43:08.520Z,31.73
2019-03-01T20:45:39.664Z,32.45
2019-03-01T20:48:09.895Z,32.42
2019-03-01T20:50:40.664Z,33.92
2019-03-01T20:53:13.388Z,34.38
2019-03-01T20:55:42.722Z,31.85
2019-03-01T20:58:12.908Z,33.80
2019-03-01T21:00:43.222Z,30.62
2019-03-01T21:03:14.632Z,29.52
2019-03-01T21:05:45.039Z,31.10
2019-03-01T21:08:15.377Z,31.95
2019-03-01T21:10:46.749Z,32.55
2019-03-01T21:13:17.420Z,31.90
2019-03-01T21:15:47.802Z,31.70
2019-03-01T21:18:18.049Z,31.68
2019-03-01T21:20:50.549Z,30.82
2019-03-01T21:23:20.140Z,33.50
2019-03-01T21:25:50.324Z,30.62
2019-03-01T21:28:22.253Z,32.67
2019-03-01T21:30:55.689Z,32.60
2019-03-01T21:33:27.392Z,34.40
2019-03-01T21:35:59.890Z,32.00
2019-03-01T21:38:30.321Z,33.58
2019-03-01T21:41:00.593Z,33.02
2019-03-01T21:43:33.624Z,32.15
2019-03-01T21:46:02.676Z,32.30
2019-03-01T21:48:33.141Z,33.05
2019-03-01T21:51:03.450Z,31.40
2019-03-01T21:53:36.446Z,31.50
2019-03-01T21:56:08.463Z,33.10
2019-03-01T21:58:38.610Z,32.98
2019-03-01T22:01:09.179Z,31.45
2019-03-01T22:03:40.745Z,33.58
2019-03-01T22:06:11.322Z,33.73
2019-03-01T22:08:44.841Z,34.08
2019-03-01T22:11:13.686Z,33.10
2019-03-01T22:13:44.900Z,32.67
2019-03-01T22:16:15.094Z,32.40
2019-03-01T22:18:45.284Z,33.83
2019-03-01T22:21:16.898Z,34.20
2019-03-01T22:23:47.615Z,34.75
2019-03-01T22:26:19.253Z,34.55
2019-03-01T22:28:49.523Z,34.27
2019-03-01T22:31:21.342Z,30.52
2019-03-01T22:33:52.625Z,33.05
2019-03-01T22:36:24.142Z,34.43
2019-03-01T22:38:54.319Z,33.00
2019-03-01T22:41:24.707Z,32.98
2019-03-01T22:43:54.915Z,32.38
2019-03-01T22:46:25.942Z,33.80
2019-03-01T22:48:56.680Z,33.40
2019-03-01T22:51:27.887Z,33.55
2019-03-01T22:53:58.077Z,33.63
2019-03-01T22:56:28.542Z,32.75
2019-03-01T22:58:58.927Z,34.05
2019-03-01T23:01:32.724Z,32.75
2019-03-01T23:04:03.952Z,33.35
2019-03-01T23:06:34.156Z,33.48
2019-03-01T23:09:10.223Z,31.73
2019-03-01T23:11:38.353Z,30.90
2019-03-01T23:14:08.570Z,31.23
2019-03-01T23:16:38.796Z,31.75
2019-03-01T23:19:09.081Z,33.05
2019-03-01T23:21:39.274Z,31.62
2019-03-01T23:24:09.557Z,30.02
2019-03-01T23:26:39.786Z,31.07
2019-03-01T23:29:11.728Z,31.30
2019-03-01T23:31:42.124Z,32.25
2019-03-01T23:34:12.301Z,29.32
2019-03-01T23:36:42.715Z,30.77
2019-03-01T23:39:13.292Z,30.45
2019-03-01T23:41:46.399Z,30.48
2019-03-01T23:44:17.043Z,31.15
2019-03-01T23:46:48.035Z,29.55
2019-03-01T23:49:20.656Z,30.30
2019-03-01T23:51:50.053Z,33.60
2019-03-01T23:54:20.233Z,30.92
2019-03-01T23:56:50.552Z,30.92
2019-03-01T23:59:23.736Z,30.25
